Latest  Newer  Older  Last 2 hours slideshow  Last 24 hours slideshow  Refresh every 5 minutes 
Current image  Latest image  Rain/snow radar  Cloud coverage sat images 

All time is UTC (add 2 hours to UTC in wintertime, 3 hours to UTC in DST for Latvia local time)

2022/05/20 19:50 EVRA 201950Z 33006KT 300V010 8000 BKN004 OVC015 11/11 Q1008 NOSIG
2022/05/20 19:50 EVLA 201950Z AUTO 30007KT 250V360 9999 OVC004/// 09/08 Q1010
2022/05/20 19:50 EVVA 201950Z AUTO 03008KT 9999 OVC003 08/08 Q1009
2022/05/20 19:50 EYKA 201950Z 27006KT CAVOK 14/09 Q1010
2022/05/20 19:50 EYPA 201950Z 26003KT 210V350 6000 FEW003 SCT019 BKN032 10/10 Q1011
2022/05/20 19:50 EYSA 201950Z 26014KT 9999 FEW016 12/10 Q1009 NOSIG
2022/05/20 19:50 EYVI 201950Z 28009KT CAVOK 15/11 Q1010 NOSIG

2022/05/20 19:50 EEKE 201950Z AUTO 05010KT 9999NDV BKN008 OVC039 08/07 Q1011
2022/05/20 19:50 EEPU 201950Z AUTO 06014KT 9999 OVC054/// 08/06 Q1011
2022/05/20 19:50 EETN 201950Z 05006KT CAVOK 09/02 Q1013 NOSIG
2022/05/20 19:50 EETU 201950Z AUTO 07008KT 9999 OVC024/// 08/05 Q1011
   RIGA AIRPORT     EVRA               56 55N  023 58E   10   X     T          6 LV
   LIEPAJA INTL     EVLA        26406  56 31N  021 06E    4   X                8 LV
   VENTPILS         EVVA               57 21N  021 33E    6   X                8 LV
   KAUNAS           EYKA               54 54N  023 55E   77   X     T          6 LT
   PALANGA INTL     EYPA               55 55N  021 03E   10   X                6 LT
   SIAULIAI INTL    EYSA               55 54N  023 24E  135   X     T          6 LT
   VILNIUS INTL     EYVI        26730  54 38N  025 17E  197   X     T          6 LT
   KARDLA           EEKA        26116  58 59N  022 50E    4   X                8 EE
   KURESSAARE       EEKE               58 14N  022 31E    4   X                8 EE
   PARNU            EEPU               58 25N  024 28E   14   X                8 EE
   TALLINN          EETN        26038  59 24N  024 49E   40   X     T          8 EE
   TARTU            EETU               58 19N  026 41E   67   X                8 EE